Time;durP1;ratioP1;P1;durP2;ratioP2;P2;SDS_P1;SDS_P2;PMS_P1;PMS_P2;Temp;Humidity;BMP_temperature;BMP_pressure;BME280_temperature;BME280_humidity;BME280_pressure;Samples;Min_cycle;Max_cycle;Signal;HPM_P1;HPM_P2
2023/10/14 00:01:34;;;;;;;4.65;2.70;;;;;;;21.47;61.40;100268.03;5004206;28;20073;-34
2023/10/14 00:04:04;;;;;;;4.45;2.88;;;;;;;21.44;61.55;100275.50;5003307;28;20054;-34
2023/10/14 00:06:38;;;;;;;4.80;2.90;;;;;;;21.41;61.53;100281.25;5004080;28;20096;-34
2023/10/14 00:09:11;;;;;;;4.00;2.60;;;;;;;21.41;61.61;100292.03;5003558;28;20050;-34
2023/10/14 00:11:50;;;;;;;4.15;3.00;;;;;;;21.39;61.45;100291.41;5002251;28;20054;-34
2023/10/14 00:14:18;;;;;;;4.18;2.67;;;;;;;21.38;61.44;100307.75;5005513;28;20064;-34
2023/10/14 00:16:51;;;;;;;6.20;2.53;;;;;;;21.37;61.52;100308.78;5000339;28;20050;-34
2023/10/14 00:19:20;;;;;;;5.63;2.97;;;;;;;21.35;61.47;100302.78;5000855;28;20411;-34
2023/10/14 00:21:49;;;;;;;5.70;3.03;;;;;;;21.34;61.56;100320.78;4998899;28;20258;-34
2023/10/14 00:24:26;;;;;;;4.47;2.67;;;;;;;21.33;61.77;100323.66;5004540;28;20084;-34
2023/10/14 00:26:54;;;;;;;2.88;2.08;;;;;;;21.32;61.65;100325.53;5001335;28;20460;-34
2023/10/14 00:29:21;;;;;;;3.55;2.33;;;;;;;21.30;61.65;100332.94;5003854;28;21190;-34
2023/10/14 00:31:50;;;;;;;5.18;2.40;;;;;;;21.29;61.46;100341.22;5005848;28;20405;-34
2023/10/14 00:34:23;;;;;;;3.92;2.42;;;;;;;21.28;61.64;100353.03;5003452;28;20315;-34
2023/10/14 00:36:50;;;;;;;4.22;2.67;;;;;;;21.27;61.60;100365.66;4999229;28;20084;-34
2023/10/14 00:39:17;;;;;;;4.57;2.58;;;;;;;21.24;61.88;100365.22;5005314;28;20130;-34
2023/10/14 00:41:52;;;;;;;4.35;2.63;;;;;;;21.25;61.58;100377.66;5005277;28;20046;-34
2023/10/14 00:44:21;;;;;;;3.85;2.60;;;;;;;21.23;61.61;100382.38;5007849;28;20053;-34
2023/10/14 00:46:48;;;;;;;3.47;2.53;;;;;;;21.20;61.60;100381.75;5006266;28;20062;-34
2023/10/14 00:49:23;;;;;;;4.72;2.63;;;;;;;21.19;61.82;100404.34;5010160;28;20104;-34
2023/10/14 00:51:57;;;;;;;4.07;2.42;;;;;;;21.18;61.80;100408.03;5005913;28;20065;-34
2023/10/14 00:54:36;;;;;;;4.95;2.30;;;;;;;21.17;61.73;100413.63;5007290;28;20053;-34
2023/10/14 00:59:49;;;;;;;4.15;2.08;;;;;;;21.15;61.81;100413.81;5005696;28;20045;-34
2023/10/14 01:02:29;;;;;;;3.25;2.30;;;;;;;21.15;61.92;100421.06;5003863;28;20377;-34
2023/10/14 01:05:06;;;;;;;3.55;2.00;;;;;;;21.13;62.22;100423.09;5011467;28;20376;-34
2023/10/14 01:07:32;;;;;;;4.20;2.25;;;;;;;21.12;61.76;100435.72;5010674;28;20057;-34
2023/10/14 01:10:01;;;;;;;3.47;2.33;;;;;;;21.11;61.86;100438.63;5005919;28;20038;-34
2023/10/14 01:12:38;;;;;;;3.58;2.42;;;;;;;21.10;62.11;100440.44;5004813;28;20050;-34
2023/10/14 01:15:20;;;;;;;4.40;2.40;;;;;;;21.10;62.10;100440.44;5004993;28;20049;-34
2023/10/14 01:17:48;;;;;;;4.63;2.40;;;;;;;21.09;61.64;100446.03;5004240;28;20366;-34
2023/10/14 01:22:57;;;;;;;3.65;2.10;;;;;;;21.06;61.98;100457.16;5006503;28;20050;-34
2023/10/14 01:25:39;;;;;;;3.05;1.92;;;;;;;21.05;61.87;100461.72;5005193;28;20064;-34
2023/10/14 01:28:12;;;;;;;3.78;1.92;;;;;;;21.05;61.83;100474.38;5014586;28;20041;-34
2023/10/14 01:31:14;;;;;;;2.90;1.90;;;;;;;21.01;62.03;100476.59;5004813;28;20081;-34
2023/10/14 01:33:40;;;;;;;3.47;2.10;;;;;;;21.02;62.20;100485.50;4998223;28;20064;-34
2023/10/14 01:36:08;;;;;;;4.55;2.03;;;;;;;21.00;62.18;100490.25;5005664;28;20764;-35
2023/10/14 01:38:36;;;;;;;2.92;2.03;;;;;;;20.99;61.90;100491.28;5002185;28;20565;-34
2023/10/14 01:41:04;;;;;;;2.72;1.73;;;;;;;20.97;61.87;100488.75;5008798;28;20056;-34
2023/10/14 01:43:32;;;;;;;2.30;1.73;;;;;;;20.95;61.54;100497.03;5000622;28;20047;-34
2023/10/14 01:48:30;;;;;;;3.90;2.00;;;;;;;20.93;62.03;100509.00;5002191;28;20458;-35
2023/10/14 01:51:03;;;;;;;2.80;1.58;;;;;;;20.91;61.69;100514.56;5005771;28;20077;-34
2023/10/14 01:53:35;;;;;;;3.80;2.30;;;;;;;20.90;61.89;100515.59;4996576;28;20046;-34
2023/10/14 01:56:02;;;;;;;3.95;2.00;;;;;;;20.89;61.84;100515.75;5008311;28;20049;-35
2023/10/14 01:58:33;;;;;;;2.53;1.67;;;;;;;20.88;61.98;100524.88;5005331;28;20497;-34
2023/10/14 02:03:43;;;;;;;2.97;1.50;;;;;;;20.86;61.77;100540.34;5004554;28;20046;-34
2023/10/14 02:06:18;;;;;;;3.38;1.73;;;;;;;20.84;61.99;100540.56;5004949;28;20092;-35
2023/10/14 02:08:51;;;;;;;2.70;1.77;;;;;;;20.83;61.84;100543.44;5005551;28;20046;-34
2023/10/14 02:11:23;;;;;;;;;;;;;;;20.80;61.67;100547.31;5009395;28;20350;-34
2023/10/14 02:13:51;;;;;;;2.83;2.13;;;;;;;20.83;61.85;100555.03;5007135;28;19968;-34
2023/10/14 02:16:24;;;;;;;2.40;1.67;;;;;;;20.80;61.96;100563.47;5008730;28;20107;-34
2023/10/14 02:19:00;;;;;;;4.20;2.10;;;;;;;20.78;62.03;100581.66;5004116;28;20046;-34
2023/10/14 02:21:33;;;;;;;1.80;1.33;;;;;;;20.77;61.70;100579.16;5000829;28;20369;-34
2023/10/14 02:24:00;;;;;;;4.05;1.83;;;;;;;20.75;61.72;100584.72;5003883;28;20119;-35
2023/10/14 02:26:31;;;;;;;5.25;2.22;;;;;;;20.74;61.86;100595.66;5003879;28;20046;-34
2023/10/14 02:28:57;;;;;;;3.05;1.65;;;;;;;20.73;61.90;100605.59;5009995;28;20133;-35
2023/10/14 02:31:35;;;;;;;2.75;1.60;;;;;;;20.72;61.95;100613.88;5003534;28;20096;-34
2023/10/14 02:34:05;;;;;;;3.22;1.83;;;;;;;20.72;61.84;100616.56;5004258;28;20074;-34
2023/10/14 02:36:41;;;;;;;3.40;1.98;;;;;;;20.69;61.91;100621.28;5001844;28;20132;-35
2023/10/14 02:39:12;;;;;;;2.85;1.77;;;;;;;20.68;61.58;100630.38;5001792;28;20046;-35
2023/10/14 02:41:40;;;;;;;3.15;1.95;;;;;;;20.68;61.73;100632.22;5005007;28;20108;-35
2023/10/14 02:46:47;;;;;;;2.60;1.70;;;;;;;20.65;61.54;100654.13;5008637;28;20050;-34
2023/10/14 02:49:14;;;;;;;1.60;1.40;;;;;;;20.64;61.49;100652.44;5001951;28;20311;-34
2023/10/14 02:51:43;;;;;;;2.03;1.50;;;;;;;20.63;61.50;100657.00;5001521;28;20430;-34
2023/10/14 02:56:59;;;;;;;4.00;1.90;;;;;;;20.61;61.96;100674.34;5005068;28;20128;-35
2023/10/14 03:02:14;;;;;;;;;;;;;;;20.58;61.87;100683.63;5003383;28;20046;-34
2023/10/14 03:07:33;;;;;;;2.92;1.67;;;;;;;20.59;61.69;100701.44;5004441;28;20386;-34
2023/10/14 03:12:50;;;;;;;2.30;1.30;;;;;;;20.55;61.70;100705.50;5003310;28;20050;-34
2023/10/14 03:15:19;;;;;;;2.42;1.60;;;;;;;20.54;62.03;100713.72;5001026;28;20108;-34
2023/10/14 03:17:53;;;;;;;4.10;1.52;;;;;;;20.53;61.54;100712.91;4998886;28;20088;-34
2023/10/14 03:23:12;;;;;;;2.88;1.15;;;;;;;20.51;61.88;100727.56;5003765;28;20100;-34
2023/10/14 03:25:39;;;;;;;3.00;1.42;;;;;;;20.50;62.14;100729.41;5002336;28;20476;-35
2023/10/14 03:28:11;;;;;;;2.30;1.48;;;;;;;20.50;61.66;100734.78;5003703;28;20446;-34
2023/10/14 03:30:44;;;;;;;2.38;1.27;;;;;;;20.49;61.77;100746.56;5004058;28;20170;-34
2023/10/14 03:33:14;;;;;;;2.25;1.38;;;;;;;20.49;61.83;100754.66;5001294;28;20116;-34
2023/10/14 03:35:43;;;;;;;2.28;1.38;;;;;;;20.48;62.09;100758.31;5002634;28;20132;-34
2023/10/14 03:38:15;;;;;;;2.28;1.50;;;;;;;20.48;62.12;100761.03;5001713;28;20046;-35
2023/10/14 03:43:15;;;;;;;2.00;1.35;;;;;;;20.48;61.74;100768.25;5005824;28;20046;-34
2023/10/14 03:48:15;;;;;;;2.90;1.42;;;;;;;20.46;61.55;100768.41;5002529;28;20061;-34
2023/10/14 03:50:42;;;;;;;1.85;1.08;;;;;;;20.44;61.86;100783.91;5007611;28;20319;-34
2023/10/14 03:53:09;;;;;;;2.35;1.27;;;;;;;20.43;61.57;100777.69;5009930;28;20069;-34
2023/10/14 03:55:38;;;;;;;3.50;1.35;;;;;;;20.43;62.29;100780.38;5005476;28;20156;-35
2023/10/14 03:58:04;;;;;;;3.78;1.48;;;;;;;20.42;61.67;100784.09;5000696;28;20710;-34
2023/10/14 04:00:37;;;;;;;2.45;1.38;;;;;;;20.42;61.58;100780.53;5002199;28;20159;-35
2023/10/14 04:03:12;;;;;;;1.50;1.13;;;;;;;20.41;62.03;100795.00;5004718;28;20347;-34
2023/10/14 04:05:59;;;;;;;2.15;1.13;;;;;;;20.41;61.85;100801.22;4999715;28;20092;-35
2023/10/14 04:08:39;;;;;;;1.95;1.23;;;;;;;20.41;61.69;100800.41;4998735;28;20054;-34
2023/10/14 04:11:15;;;;;;;2.13;1.40;;;;;;;20.40;61.98;100810.34;5004470;28;20117;-34
2023/10/14 04:13:51;;;;;;;2.15;1.30;;;;;;;20.39;61.48;100819.44;5003225;28;20050;-34
2023/10/14 04:16:27;;;;;;;2.35;1.20;;;;;;;20.38;61.40;100814.19;5001905;28;20069;-34
2023/10/14 04:18:59;;;;;;;2.85;1.40;;;;;;;20.38;62.02;100824.97;5001000;28;20418;-34
2023/10/14 04:21:37;;;;;;;3.38;1.33;;;;;;;20.37;61.62;100825.97;5000678;28;20047;-34
2023/10/14 04:26:49;;;;;;;2.95;1.35;;;;;;;20.36;61.28;100835.06;5004844;28;20054;-34
2023/10/14 04:29:39;;;;;;;1.58;0.98;;;;;;;20.34;62.05;100846.03;4997324;28;20066;-34
2023/10/14 04:32:16;;;;;;;2.38;1.10;;;;;;;20.34;61.92;100847.84;5000741;28;20097;-34
2023/10/14 04:34:44;;;;;;;2.28;1.02;;;;;;;20.33;61.57;100855.09;5005024;28;20468;-34
2023/10/14 04:37:16;;;;;;;4.15;1.55;;;;;;;20.32;61.45;100860.66;5001819;28;20054;-34
2023/10/14 04:39:42;;;;;;;3.67;1.10;;;;;;;20.31;61.84;100865.19;4999703;28;20057;-34
2023/10/14 04:44:55;;;;;;;3.25;1.48;;;;;;;20.30;61.55;100876.97;5002043;28;20062;-34
2023/10/14 04:47:47;;;;;;;4.00;1.40;;;;;;;20.30;61.89;100882.38;5005213;28;20050;-34
2023/10/14 04:50:10;;;;;;;1.75;1.20;;;;;;;20.29;62.08;100886.03;5002565;28;20054;-35
2023/10/14 04:52:38;;;;;;;2.80;1.27;;;;;;;20.28;61.96;100892.44;5004217;28;20057;-34
2023/10/14 04:55:19;;;;;;;1.75;0.90;;;;;;;20.28;61.93;100891.59;5006282;28;20109;-34
2023/10/14 04:58:05;;;;;;;2.10;1.15;;;;;;;20.27;61.89;100906.91;5002611;28;20150;-34
2023/10/14 05:00:42;;;;;;;2.63;1.02;;;;;;;20.27;61.70;100911.47;5004591;28;20129;-34
2023/10/14 05:03:12;;;;;;;2.78;1.20;;;;;;;20.26;61.33;100916.00;5003254;28;20050;-34
2023/10/14 05:05:44;;;;;;;2.42;1.27;;;;;;;20.25;61.64;100908.91;4997941;28;20061;-34
2023/10/14 05:08:21;;;;;;;2.75;1.10;;;;;;;20.25;61.58;100916.16;5002012;28;20129;-34
2023/10/14 05:10:50;;;;;;;2.33;1.30;;;;;;;20.26;62.04;100920.50;5001699;28;20132;-34
2023/10/14 05:13:33;;;;;;;2.38;1.25;;;;;;;20.24;61.94;100931.47;5002155;28;20049;-34
2023/10/14 05:16:15;;;;;;;3.72;1.60;;;;;;;20.24;61.88;100930.63;5001762;28;20442;-34
2023/10/14 05:18:57;;;;;;;3.03;0.95;;;;;;;20.23;61.58;100937.03;5002715;28;20049;-34
2023/10/14 05:21:35;;;;;;;3.10;1.10;;;;;;;20.23;61.40;100942.41;5004217;28;20055;-34
2023/10/14 05:24:09;;;;;;;1.45;1.10;;;;;;;20.20;61.50;100949.78;5007638;28;20438;-34
2023/10/14 05:26:46;;;;;;;1.30;0.90;;;;;;;20.20;61.74;100948.94;5006556;28;20060;-34
2023/10/14 05:29:17;;;;;;;1.60;0.90;;;;;;;20.20;61.95;100948.94;5005847;28;20045;-34
2023/10/14 05:31:47;;;;;;;1.73;0.95;;;;;;;20.20;61.88;100957.03;5008993;28;20087;-34
2023/10/14 05:34:17;;;;;;;1.73;0.90;;;;;;;20.19;61.74;100963.41;5005204;28;20053;-34
2023/10/14 05:36:44;;;;;;;3.92;1.13;;;;;;;20.18;61.88;100961.72;5007618;28;20141;-34
2023/10/14 05:39:11;;;;;;;2.70;1.30;;;;;;;20.18;61.24;100967.09;5004411;28;20080;-34
2023/10/14 05:41:38;;;;;;;2.75;1.10;;;;;;;20.16;61.61;100969.97;5007180;28;20054;-34
2023/10/14 05:44:08;;;;;;;2.00;1.42;;;;;;;20.16;61.29;100978.03;5006056;28;20081;-35
2023/10/14 05:46:34;;;;;;;1.88;1.25;;;;;;;20.14;61.66;100977.38;5005744;28;20100;-35
2023/10/14 05:49:01;;;;;;;6.00;1.30;;;;;;;20.15;61.17;100983.59;5004453;28;20135;-35
2023/10/14 05:51:28;;;;;;;2.92;1.40;;;;;;;20.15;61.49;100989.81;5008195;28;20046;-35
2023/10/14 05:53:56;;;;;;;4.72;1.90;;;;;;;20.15;61.41;100988.97;5001373;28;20074;-35
2023/10/14 05:56:27;;;;;;;5.97;2.13;;;;;;;20.16;61.33;100993.34;5004573;28;20053;-35
2023/10/14 05:58:54;;;;;;;6.55;2.10;;;;;;;20.17;62.00;100997.72;5005830;28;20537;-35
2023/10/14 06:01:21;;;;;;;5.63;2.28;;;;;;;20.17;61.38;101006.63;5004629;28;20054;-35
2023/10/14 06:03:49;;;;;;;7.03;2.60;;;;;;;20.17;61.39;101008.47;5001617;28;20057;-35
2023/10/14 06:06:16;;;;;;;5.97;2.03;;;;;;;20.17;61.68;101009.31;5004873;28;20501;-35
2023/10/14 06:08:46;;;;;;;6.60;2.20;;;;;;;20.18;61.27;101021.78;5002406;28;20108;-35
2023/10/14 06:11:13;;;;;;;8.55;2.10;;;;;;;20.19;61.83;101026.16;5003615;28;20100;-35
2023/10/14 06:13:40;;;;;;;9.10;2.20;;;;;;;20.21;61.48;101028.69;5005790;28;20042;-35
2023/10/14 06:16:11;;;;;;;7.80;2.88;;;;;;;20.20;61.30;101038.59;5002743;28;20077;-35
2023/10/14 06:18:39;;;;;;;9.50;2.40;;;;;;;20.22;61.68;101043.81;5001573;28;20060;-35
2023/10/14 06:21:08;;;;;;;11.18;2.97;;;;;;;20.22;61.46;101057.28;5000120;28;20057;-35
2023/10/14 06:23:35;;;;;;;5.75;2.65;;;;;;;20.23;61.50;101058.13;5007018;28;20066;-35
2023/10/14 06:26:05;;;;;;;6.50;2.50;;;;;;;20.24;61.89;101074.13;5004446;28;20050;-35
2023/10/14 06:28:32;;;;;;;7.35;2.22;;;;;;;20.25;61.45;101069.56;5002256;28;20109;-35
2023/10/14 06:31:04;;;;;;;7.03;2.75;;;;;;;20.25;61.47;101064.19;5003340;28;20041;-35
2023/10/14 06:33:30;;;;;;;6.03;2.00;;;;;;;20.26;61.46;101082.00;5003765;28;20054;-35
2023/10/14 06:36:03;;;;;;;5.43;2.30;;;;;;;20.26;61.59;101088.28;5005660;28;20050;-35
2023/10/14 06:38:33;;;;;;;6.27;2.60;;;;;;;20.25;61.03;101089.25;5003222;28;20133;-35
2023/10/14 06:41:01;;;;;;;8.27;2.78;;;;;;;20.26;61.63;101092.78;5006510;28;20084;-35
2023/10/14 06:43:28;;;;;;;7.80;2.58;;;;;;;20.26;61.79;101093.66;5001349;28;20112;-35
2023/10/14 06:45:56;;;;;;;6.43;2.60;;;;;;;20.26;61.47;101093.66;5002070;28;20057;-35
2023/10/14 06:48:23;;;;;;;8.13;2.58;;;;;;;20.27;61.61;101105.25;5003216;28;20599;-35
2023/10/14 06:50:54;;;;;;;9.55;2.17;;;;;;;20.27;61.54;101110.66;4999834;28;20422;-35
2023/10/14 06:53:21;;;;;;;3.60;1.70;;;;;;;20.28;61.58;101115.00;4997027;28;20054;-35
2023/10/14 06:55:50;;;;;;;8.32;2.55;;;;;;;20.27;61.06;101118.72;5005220;28;20485;-35
2023/10/14 06:58:19;;;;;;;5.43;2.35;;;;;;;20.27;61.60;101119.56;5005809;28;20054;-35
2023/10/14 07:00:46;;;;;;;5.93;2.40;;;;;;;20.28;60.90;101129.31;5006555;28;20076;-35
2023/10/14 07:03:13;;;;;;;8.90;2.30;;;;;;;20.30;61.46;101131.81;5003487;28;20319;-35
2023/10/14 07:05:48;;;;;;;13.30;2.85;;;;;;;20.30;61.36;101139.91;5003432;28;20477;-35
2023/10/14 07:08:16;;;;;;;7.93;2.25;;;;;;;20.31;61.16;101142.47;5004276;28;20048;-35
2023/10/14 07:10:43;;;;;;;6.78;2.20;;;;;;;20.31;61.20;101147.00;5003752;28;20442;-35
2023/10/14 07:13:10;;;;;;;6.32;1.73;;;;;;;20.31;61.49;101153.22;4998835;28;20133;-35
2023/10/14 07:15:39;;;;;;;5.70;1.92;;;;;;;20.32;61.13;101157.59;5002369;28;20071;-35
2023/10/14 07:18:05;;;;;;;5.55;1.88;;;;;;;20.32;61.10;101162.13;4999142;28;20164;-35
2023/10/14 07:20:33;;;;;;;7.97;2.60;;;;;;;20.33;61.24;101163.81;5004147;28;20048;-35
2023/10/14 07:23:01;;;;;;;8.32;2.20;;;;;;;20.33;60.72;101174.59;5001391;28;20042;-35
2023/10/14 07:25:35;;;;;;;6.97;1.95;;;;;;;20.32;60.96;101170.22;5002449;28;20109;-35
2023/10/14 07:28:07;;;;;;;5.32;1.77;;;;;;;20.34;61.39;101170.88;5001391;28;20132;-35
2023/10/14 07:30:38;;;;;;;8.52;2.00;;;;;;;20.34;61.13;101173.56;5005770;28;20077;-35
2023/10/14 07:33:06;;;;;;;6.00;1.83;;;;;;;20.34;60.64;101184.34;5008293;28;20148;-35
2023/10/14 07:35:33;;;;;;;6.57;2.33;;;;;;;20.34;60.76;101193.28;5005148;28;20420;-35
2023/10/14 07:38:00;;;;;;;5.03;1.80;;;;;;;20.34;61.37;101190.59;5002843;28;20484;-35
2023/10/14 07:40:27;;;;;;;6.40;2.75;;;;;;;20.37;61.36;101194.78;5004082;28;20069;-35
2023/10/14 07:43:10;;;;;;;5.72;1.63;;;;;;;20.37;60.85;101208.25;5003540;28;20061;-35
2023/10/14 07:45:43;;;;;;;7.63;1.88;;;;;;;20.37;60.74;101211.78;5002819;28;20058;-35
2023/10/14 07:48:12;;;;;;;7.40;2.45;;;;;;;20.38;60.58;101215.31;5002510;28;20077;-35
2023/10/14 07:50:42;;;;;;;6.72;1.75;;;;;;;20.38;60.68;101223.41;5000227;28;20110;-35
2023/10/14 07:53:13;;;;;;;5.38;2.13;;;;;;;20.37;60.81;101222.56;5002678;28;20096;-35
2023/10/14 07:55:40;;;;;;;6.18;2.10;;;;;;;20.40;61.21;101224.09;5003202;28;20156;-35
2023/10/14 07:58:08;;;;;;;4.88;2.20;;;;;;;20.40;60.80;101226.78;4999485;28;20112;-35
2023/10/14 08:00:38;;;;;;;5.78;2.15;;;;;;;20.40;61.10;101224.94;5005167;28;20042;-35
2023/10/14 08:03:06;;;;;;;7.97;2.25;;;;;;;20.40;61.20;101230.31;5010203;28;20050;-35
2023/10/14 08:05:39;;;;;;;5.35;1.65;;;;;;;20.42;60.84;101232.84;5007280;28;20386;-36
2023/10/14 08:08:09;;;;;;;6.03;1.80;;;;;;;20.42;60.91;101231.03;5002581;28;20437;-35
2023/10/14 08:10:36;;;;;;;6.03;1.90;;;;;;;20.44;61.20;101242.47;5000091;28;20052;-36
2023/10/14 08:13:07;;;;;;;4.82;1.70;;;;;;;20.43;60.82;101240.78;5002388;28;20081;-35
2023/10/14 08:15:36;;;;;;;7.65;2.05;;;;;;;20.45;60.85;101254.06;5000329;28;20043;-36
2023/10/14 08:18:04;;;;;;;4.32;1.80;;;;;;;20.47;61.18;101252.09;4996507;28;20446;-35
2023/10/14 08:20:36;;;;;;;7.38;2.00;;;;;;;20.48;60.97;101256.44;5004899;28;20386;-35
2023/10/14 08:23:09;;;;;;;4.47;1.95;;;;;;;20.49;60.98;101252.78;5000185;28;20394;-33
2023/10/14 08:25:37;;;;;;;4.97;1.73;;;;;;;20.51;60.80;101258.03;5003467;28;20135;-34
2023/10/14 08:28:05;;;;;;;5.35;2.28;;;;;;;20.53;61.13;101262.22;5004683;28;20144;-34
2023/10/14 08:30:34;;;;;;;4.45;1.73;;;;;;;20.54;61.43;101279.22;5005769;28;20426;-34
2023/10/14 08:33:04;;;;;;;6.40;1.70;;;;;;;20.54;60.94;101274.69;5003970;28;20429;-34
2023/10/14 08:35:31;;;;;;;5.32;1.92;;;;;;;20.56;61.30;101271.84;5003306;28;20050;-34
2023/10/14 08:37:58;;;;;;;5.28;1.63;;;;;;;20.57;61.41;101282.44;5005421;28;20108;-35
2023/10/14 08:40:26;;;;;;;4.60;1.50;;;;;;;20.58;60.91;101286.84;4994978;28;20046;-34
2023/10/14 08:43:05;;;;;;;5.57;1.77;;;;;;;20.60;61.39;101292.06;4998219;28;20061;-34
2023/10/14 08:45:39;;;;;;;5.20;1.40;;;;;;;20.62;61.29;101303.50;4996464;28;20377;-35
2023/10/14 08:48:08;;;;;;;4.45;1.65;;;;;;;20.61;61.53;101294.59;4997669;28;20074;-35
2023/10/14 08:50:39;;;;;;;5.90;1.70;;;;;;;20.62;61.27;101299.00;4996311;28;20145;-35
2023/10/14 08:53:07;;;;;;;7.10;1.63;;;;;;;20.64;61.09;101309.59;4997096;28;20438;-35
2023/10/14 08:55:34;;;;;;;5.88;1.80;;;;;;;20.61;60.88;101305.38;5006637;28;20050;-35
2023/10/14 08:58:04;;;;;;;9.90;2.30;;;;;;;20.62;61.03;101307.06;5003410;28;20141;-35
2023/10/14 09:00:36;;;;;;;3.70;1.58;;;;;;;20.63;60.82;101310.59;5005015;28;20367;-35
2023/10/14 09:03:09;;;;;;;5.47;1.58;;;;;;;20.62;61.08;101307.06;5006867;28;20054;-34
2023/10/14 09:05:40;;;;;;;5.20;1.70;;;;;;;20.61;60.86;101310.75;5004607;28;20100;-34
2023/10/14 09:08:09;;;;;;;4.30;1.38;;;;;;;20.61;60.65;101318.84;5008396;28;20045;-35
2023/10/14 09:10:39;;;;;;;4.05;1.48;;;;;;;20.62;60.83;101323.25;5006604;28;20044;-34
2023/10/14 09:13:08;;;;;;;4.72;1.55;;;;;;;20.61;60.85;101329.59;5006571;28;20053;-34
2023/10/14 09:15:45;;;;;;;7.65;1.63;;;;;;;20.61;60.90;101337.69;5002203;28;20054;-34
2023/10/14 09:18:27;;;;;;;3.17;1.25;;;;;;;20.60;60.61;101341.38;5007247;28;20129;-35
2023/10/14 09:20:59;;;;;;;4.38;1.48;;;;;;;20.59;60.55;101339.72;5004553;28;20430;-35
2023/10/14 09:23:27;;;;;;;3.20;1.20;;;;;;;20.59;60.63;101341.56;5002442;28;20082;-34
2023/10/14 09:25:58;;;;;;;4.43;1.35;;;;;;;20.60;60.30;101345.94;5003749;28;20139;-35
2023/10/14 09:28:32;;;;;;;4.65;1.52;;;;;;;20.58;60.52;101346.09;5006492;28;20042;-34
2023/10/14 09:31:07;;;;;;;4.65;1.70;;;;;;;20.58;60.69;101345.22;5008911;28;20073;-34
2023/10/14 09:33:36;;;;;;;4.80;1.63;;;;;;;20.58;60.54;101348.78;5004057;28;20050;-35
2023/10/14 09:36:18;;;;;;;5.20;1.33;;;;;;;20.58;60.51;101350.63;5015173;28;20078;-35
2023/10/14 09:38:48;;;;;;;4.63;1.33;;;;;;;20.61;61.03;101351.16;5002543;28;20061;-35
2023/10/14 09:41:15;;;;;;;3.28;1.80;;;;;;;20.63;60.49;101359.94;5005563;28;20125;-35
2023/10/14 09:43:48;;;;;;;3.00;1.30;;;;;;;20.66;60.51;101362.31;5009316;28;20081;-34
2023/10/14 09:46:17;;;;;;;6.50;2.00;;;;;;;20.67;60.12;101369.38;5008554;28;20046;-35
2023/10/14 09:48:45;;;;;;;3.70;1.20;;;;;;;20.70;59.97;101370.91;5001264;28;20078;-35
2023/10/14 09:51:15;;;;;;;5.22;1.80;;;;;;;20.73;60.17;101375.13;5002503;28;20071;-35
2023/10/14 09:53:45;;;;;;;2.78;1.25;;;;;;;20.76;60.04;101375.66;5003444;28;20120;-35
2023/10/14 09:56:12;;;;;;;4.80;1.70;;;;;;;20.81;59.69;101380.56;5002585;28;20046;-35
2023/10/14 09:58:44;;;;;;;4.25;1.40;;;;;;;20.86;59.81;101380.94;5004307;28;20354;-35
2023/10/14 10:01:14;;;;;;;6.65;1.48;;;;;;;20.92;59.64;101393.78;5006376;28;20076;-35
2023/10/14 10:03:52;;;;;;;6.25;1.38;;;;;;;20.97;59.49;101383.38;5005761;28;20050;-35
2023/10/14 10:07:02;;;;;;;5.20;1.50;;;;;;;21.02;59.51;101383.72;5005691;28;20050;-35
2023/10/14 10:10:13;;;;;;;7.18;1.60;;;;;;;21.05;59.39;101388.78;5002159;28;20374;-35
2023/10/14 10:12:43;;;;;;;4.20;1.40;;;;;;;21.10;58.91;101393.69;5004127;28;20458;-35
2023/10/14 10:15:10;;;;;;;5.18;1.58;;;;;;;21.10;59.09;101402.63;5006490;28;20077;-35
2023/10/14 10:17:40;;;;;;;6.60;1.42;;;;;;;21.11;58.90;101411.59;5008475;28;20088;-35
2023/10/14 10:20:09;;;;;;;6.00;1.30;;;;;;;21.11;58.64;101407.03;5004381;28;20074;-35
2023/10/14 10:22:50;;;;;;;4.43;1.48;;;;;;;21.11;58.34;101412.44;5003062;28;20141;-35
2023/10/14 10:25:18;;;;;;;3.78;1.55;;;;;;;21.13;58.51;101409.56;5004409;28;20134;-35
2023/10/14 10:27:49;;;;;;;3.60;1.27;;;;;;;21.12;58.44;101408.72;5002667;28;20133;-35
2023/10/14 10:30:18;;;;;;;3.72;1.35;;;;;;;21.12;58.40;101405.19;5003203;28;20041;-35
2023/10/14 10:32:49;;;;;;;3.88;1.27;;;;;;;21.11;58.20;101420.50;5004780;28;20346;-35
2023/10/14 10:35:18;;;;;;;4.07;1.25;;;;;;;21.11;58.55;101416.97;5004714;28;20468;-35
2023/10/14 10:37:59;;;;;;;11.10;2.13;;;;;;;21.11;57.58;101414.28;5007688;28;20133;-35
2023/10/14 10:40:27;;;;;;;10.32;1.90;;;;;;;21.10;57.55;101416.09;5007620;28;20045;-35
2023/10/14 10:43:03;;;;;;;6.57;2.20;;;;;;;21.09;56.86;101419.81;5002874;28;20097;-35
2023/10/14 10:45:33;;;;;;;6.03;1.75;;;;;;;21.09;57.23;101419.81;5009226;28;20054;-35
2023/10/14 10:48:03;;;;;;;8.10;1.83;;;;;;;21.10;57.21;101423.34;5009693;28;20466;-35
2023/10/14 10:50:39;;;;;;;6.40;2.00;;;;;;;21.09;56.84;101419.81;5003748;28;20133;-35
2023/10/14 10:53:05;;;;;;;5.18;1.45;;;;;;;21.11;57.53;101425.06;5005573;28;20100;-35
2023/10/14 10:55:36;;;;;;;7.72;1.90;;;;;;;21.11;57.55;101425.91;5002563;28;20444;-35
2023/10/14 10:58:05;;;;;;;7.55;1.60;;;;;;;21.12;57.47;101426.75;5002414;28;20439;-35
2023/10/14 11:00:33;;;;;;;6.32;1.48;;;;;;;21.12;56.93;101435.69;5002551;28;20054;-35
2023/10/14 11:03:01;;;;;;;4.90;1.73;;;;;;;21.12;57.14;101441.06;5001214;28;20054;-35
2023/10/14 11:05:29;;;;;;;5.03;1.42;;;;;;;21.12;57.08;101434.84;5004492;28;20046;-35
2023/10/14 11:07:57;;;;;;;6.97;1.70;;;;;;;21.13;57.03;101441.91;5003406;28;20596;-35
2023/10/14 11:10:31;;;;;;;6.78;1.50;;;;;;;21.12;56.76;101434.84;4999274;28;20389;-35
2023/10/14 11:12:58;;;;;;;4.80;1.73;;;;;;;21.13;57.04;101437.34;5004056;28;20056;-35
2023/10/14 11:15:26;;;;;;;5.90;1.33;;;;;;;21.15;56.61;101443.44;5006888;28;20046;-35
2023/10/14 11:17:56;;;;;;;10.35;2.55;;;;;;;21.14;56.79;101449.81;5004257;28;20077;-35
2023/10/14 11:20:27;;;;;;;5.13;1.55;;;;;;;21.15;56.49;101448.00;5001560;28;20125;-35
2023/10/14 11:22:58;;;;;;;5.82;1.80;;;;;;;21.15;56.76;101456.94;5005007;28;20053;-35
2023/10/14 11:25:25;;;;;;;5.45;1.67;;;;;;;21.16;56.79;101455.06;5006170;28;20438;-35
2023/10/14 11:27:54;;;;;;;5.35;1.38;;;;;;;21.16;56.41;101453.22;5004976;28;20137;-35
2023/10/14 11:30:26;;;;;;;10.60;1.80;;;;;;;21.16;56.14;101450.53;5001181;28;20054;-35
2023/10/14 11:32:53;;;;;;;6.35;1.52;;;;;;;21.17;56.22;101451.38;5005801;28;20049;-35
2023/10/14 11:35:22;;;;;;;9.00;1.75;;;;;;;21.17;55.69;101449.50;5002551;28;20068;-35
2023/10/14 11:37:52;;;;;;;9.70;2.10;;;;;;;21.16;55.37;101447.84;5000012;28;20069;-35
2023/10/14 11:40:32;;;;;;;8.70;2.38;;;;;;;21.15;55.01;101456.09;5008963;28;20141;-36
2023/10/14 11:42:58;;;;;;;5.03;1.67;;;;;;;21.16;55.16;101453.22;5004390;28;20085;-35
2023/10/14 11:45:25;;;;;;;9.18;2.03;;;;;;;21.17;55.65;101445.97;5006490;28;20575;-35
2023/10/14 11:47:52;;;;;;;6.47;1.80;;;;;;;21.17;55.74;101460.31;5004409;28;20138;-35
2023/10/14 11:50:19;;;;;;;10.20;2.00;;;;;;;21.18;55.93;101456.59;5005643;28;20046;-35
2023/10/14 11:52:52;;;;;;;8.57;1.98;;;;;;;21.19;55.15;101463.69;5003764;28;20431;-35
2023/10/14 11:55:20;;;;;;;7.03;1.70;;;;;;;21.21;55.14;101466.22;5003521;28;20042;-35
2023/10/14 11:57:48;;;;;;;9.30;1.67;;;;;;;21.26;55.20;101465.75;5006175;28;20158;-35
2023/10/14 12:00:20;;;;;;;6.35;1.67;;;;;;;21.25;55.06;101470.28;5003910;28;20054;-35
2023/10/14 12:02:50;;;;;;;8.52;2.03;;;;;;;21.28;54.98;101471.84;5003583;28;20121;-35
2023/10/14 12:05:17;;;;;;;7.32;1.77;;;;;;;21.29;55.00;101474.34;5002986;28;20108;-35
2023/10/14 12:07:44;;;;;;;8.38;2.45;;;;;;;21.29;55.01;101478.91;5001887;28;20054;-35
2023/10/14 12:10:11;;;;;;;8.52;1.98;;;;;;;21.29;54.87;101485.13;5002061;28;20046;-36
2023/10/14 12:12:38;;;;;;;7.68;1.95;;;;;;;21.30;54.88;101480.59;5004116;28;20576;-36
2023/10/14 12:15:08;;;;;;;4.80;1.40;;;;;;;21.30;54.84;101481.44;5006737;28;20041;-36
2023/10/14 12:17:35;;;;;;;6.00;1.67;;;;;;;21.32;55.43;101494.78;5006617;28;20500;-35
2023/10/14 12:20:05;;;;;;;4.63;1.40;;;;;;;21.32;55.28;101497.47;5002930;28;20046;-35